Time;durP1;ratioP1;P1;durP2;ratioP2;P2;SDS_P1;SDS_P2;PMS_P1;PMS_P2;Temp;Humidity;BMP_temperature;BMP_pressure;BME280_temperature;BME280_humidity;BME280_pressure;Samples;Min_cycle;Max_cycle;Signal;HPM_P1;HPM_P2
2022/10/26 00:01:18;;;;;;;;;3.50;1.00;;;;;;;;5064560;28;61758;-82
2022/10/26 00:03:45;;;;;;;;;3.75;2.75;;;;;;;;5046343;28;61699;-82
2022/10/26 00:06:10;;;;;;;;;2.33;1.00;;;;;;;;5059335;28;61746;-82
2022/10/26 00:08:35;;;;;;;;;2.67;2.00;;;;;;;;5056327;28;61940;-81
2022/10/26 00:11:01;;;;;;;;;3.75;2.25;;;;;;;;5064312;28;61675;-82
2022/10/26 00:13:26;;;;;;;;;2.75;2.00;;;;;;;;5064575;28;61698;-82
2022/10/26 00:15:51;;;;;;;;;4.75;3.00;;;;;;;;5046337;28;61755;-81
2022/10/26 00:18:17;;;;;;;;;3.00;1.75;;;;;;;;5063092;28;61683;-81
2022/10/26 00:20:42;;;;;;;;;4.00;2.50;;;;;;;;5064319;28;61848;-82
2022/10/26 00:23:07;;;;;;;;;2.00;2.00;;;;;;;;5064020;28;61691;-82
2022/10/26 00:25:33;;;;;;;;;2.00;2.00;;;;;;;;5046249;28;61731;-81
2022/10/26 00:27:58;;;;;;;;;2.50;2.00;;;;;;;;5045302;28;64029;-82
2022/10/26 00:30:23;;;;;;;;;2.75;1.25;;;;;;;;5064126;28;61707;-82
2022/10/26 00:32:49;;;;;;;;;2.50;2.50;;;;;;;;5045800;28;61968;-82
2022/10/26 00:35:14;;;;;;;;;3.00;2.00;;;;;;;;5063995;28;61730;-82
2022/10/26 00:37:39;;;;;;;;;1.75;1.75;;;;;;;;5063087;28;61999;-82
2022/10/26 00:40:05;;;;;;;;;5.00;3.75;;;;;;;;5045818;28;61960;-83
2022/10/26 00:42:30;;;;;;;;;2.00;2.00;;;;;;;;5045909;28;61886;-82
2022/10/26 00:44:57;;;;;;;;;2.25;2.25;;;;;;;;5064369;28;62091;-82
2022/10/26 00:47:22;;;;;;;;;2.00;2.00;;;;;;;;5063090;28;61828;-82
2022/10/26 00:49:48;;;;;;;;;6.25;5.25;;;;;;;;5063231;28;61926;-82
2022/10/26 00:52:16;;;;;;;;;1.75;1.75;;;;;;;;5063673;28;61794;-82
2022/10/26 00:54:42;;;;;;;;;4.75;4.00;;;;;;;;5045679;28;61997;-82
2022/10/26 00:57:10;;;;;;;;;5.67;3.00;;;;;;;;5062650;28;61916;-82
2022/10/26 00:59:35;;;;;;;;;3.00;3.00;;;;;;;;5045613;28;62043;-82
2022/10/26 01:02:01;;;;;;;;;9.50;4.00;;;;;;;;5045141;28;61859;-82
2022/10/26 01:04:26;;;;;;;;;5.00;4.75;;;;;;;;5062668;28;61790;-82
2022/10/26 01:06:51;;;;;;;;;5.25;4.00;;;;;;;;5033644;28;64257;-82
2022/10/26 01:09:17;;;;;;;;;6.25;4.00;;;;;;;;5043472;28;61743;-82
2022/10/26 01:11:43;;;;;;;;;9.00;6.00;;;;;;;;5063558;28;61727;-82
2022/10/26 01:14:09;;;;;;;;;6.00;4.00;;;;;;;;5063459;28;62075;-82
2022/10/26 01:16:47;;;;;;;;;4.75;4.50;;;;;;;;5044749;28;64087;-82
2022/10/26 01:19:31;;;;;;;;;5.75;5.00;;;;;;;;5044414;28;62024;-82
2022/10/26 01:22:02;;;;;;;;;5.75;4.00;;;;;;;;5063388;28;61901;-83
2022/10/26 01:24:33;;;;;;;;;3.25;3.25;;;;;;;;5045029;28;62236;-82
2022/10/26 01:27:05;;;;;;;;;5.75;5.75;;;;;;;;5044358;28;65318;-82
2022/10/26 01:29:36;;;;;;;;;6.25;3.75;;;;;;;;5045022;28;61675;-82
2022/10/26 01:32:06;;;;;;;;;5.25;4.00;;;;;;;;5062953;28;61865;-82
2022/10/26 01:34:55;;;;;;;;;4.00;3.00;;;;;;;;5044742;28;61743;-82
2022/10/26 01:37:22;;;;;;;;;4.25;3.00;;;;;;;;5038289;28;64203;-82
2022/10/26 01:39:51;;;;;;;;;7.00;4.00;;;;;;;;5062801;28;62043;-82
2022/10/26 01:42:17;;;;;;;;;4.00;2.00;;;;;;;;5062800;28;61993;-82
2022/10/26 01:44:46;;;;;;;;;3.33;2.00;;;;;;;;5063381;28;61613;-82
2022/10/26 01:47:13;;;;;;;;;4.00;3.25;;;;;;;;5043983;28;63688;-83
2022/10/26 01:49:41;;;;;;;;;4.25;3.00;;;;;;;;5062411;28;61853;-83
2022/10/26 01:52:08;;;;;;;;;6.75;3.00;;;;;;;;5044770;28;61752;-83
2022/10/26 01:54:36;;;;;;;;;1.50;1.50;;;;;;;;5062707;28;61902;-83
2022/10/26 01:57:04;;;;;;;;;3.00;2.00;;;;;;;;5062007;28;62872;-82
2022/10/26 01:59:49;;;;;;;;;1.50;1.50;;;;;;;;5044741;28;61983;-82
2022/10/26 02:02:20;;;;;;;;;2.25;2.25;;;;;;;;5062486;28;61891;-82
2022/10/26 02:04:45;;;;;;;;;3.00;3.00;;;;;;;;5062676;28;62059;-83
2022/10/26 02:07:11;;;;;;;;;1.00;1.00;;;;;;;;5061347;28;61831;-82
2022/10/26 02:09:56;;;;;;;;;3.00;2.00;;;;;;;;5044482;28;62028;-82
2022/10/26 02:12:48;;;;;;;;;1.00;1.00;;;;;;;;5036861;28;61810;-84
2022/10/26 02:15:19;;;;;;;;;2.25;1.50;;;;;;;;5038349;28;61941;-82
2022/10/26 02:17:44;;;;;;;;;3.00;2.00;;;;;;;;5061371;28;61805;-82
2022/10/26 02:20:13;;;;;;;;;3.00;1.75;;;;;;;;5044268;28;62074;-82
2022/10/26 02:22:44;;;;;;;;;2.25;1.75;;;;;;;;5062564;28;62068;-84
2022/10/26 02:25:21;;;;;;;;;2.00;2.00;;;;;;;;5044421;28;61858;-83
2022/10/26 02:27:49;;;;;;;;;1.00;1.00;;;;;;;;5061810;28;61866;-83
2022/10/26 02:30:15;;;;;;;;;1.00;1.00;;;;;;;;5062130;28;61821;-83
2022/10/26 02:32:43;;;;;;;;;2.00;2.00;;;;;;;;5043746;28;61944;-82
2022/10/26 02:35:10;;;;;;;;;3.00;1.00;;;;;;;;5044440;28;61817;-83
2022/10/26 02:37:37;;;;;;;;;3.00;2.00;;;;;;;;5061318;28;61840;-82
2022/10/26 02:40:04;;;;;;;;;3.75;2.00;;;;;;;;5044070;28;61910;-82
2022/10/26 02:42:30;;;;;;;;;1.00;1.00;;;;;;;;5043787;28;62156;-83
2022/10/26 02:45:05;;;;;;;;;2.75;2.00;;;;;;;;5044282;28;61962;-83
2022/10/26 02:47:31;;;;;;;;;3.00;3.00;;;;;;;;5060752;28;61926;-83
2022/10/26 02:49:57;;;;;;;;;2.00;1.00;;;;;;;;5061773;28;61957;-82
2022/10/26 02:52:27;;;;;;;;;1.00;1.00;;;;;;;;5061658;28;61767;-82
2022/10/26 02:55:11;;;;;;;;;1.00;1.00;;;;;;;;5062211;28;61782;-82
2022/10/26 02:57:40;;;;;;;;;3.00;2.00;;;;;;;;5061028;28;62918;-83
2022/10/26 03:00:09;;;;;;;;;2.00;2.00;;;;;;;;5062193;28;62005;-82
2022/10/26 03:02:35;;;;;;;;;1.00;1.00;;;;;;;;5043055;28;61866;-82
2022/10/26 03:05:10;;;;;;;;;1.75;1.75;;;;;;;;5062087;28;61790;-82
2022/10/26 03:07:35;;;;;;;;;2.67;2.67;;;;;;;;5043568;28;62045;-83
2022/10/26 03:10:01;;;;;;;;;2.00;1.00;;;;;;;;5041684;28;61708;-82
2022/10/26 03:12:26;;;;;;;;;1.00;1.00;;;;;;;;5041569;28;61881;-83
2022/10/26 03:14:51;;;;;;;;;2.00;2.00;;;;;;;;5023778;28;61744;-82
2022/10/26 03:17:16;;;;;;;;;2.00;2.00;;;;;;;;5040484;28;62159;-82
2022/10/26 03:19:42;;;;;;;;;2.25;1.25;;;;;;;;5041144;28;61622;-83
2022/10/26 03:22:07;;;;;;;;;2.25;2.25;;;;;;;;5041652;28;61744;-82
2022/10/26 03:24:32;;;;;;;;;2.33;2.00;;;;;;;;5041480;28;61727;-82
2022/10/26 03:26:57;;;;;;;;;2.00;2.00;;;;;;;;5024522;28;64717;-82
2022/10/26 03:29:23;;;;;;;;;1.25;1.25;;;;;;;;5045043;28;61738;-82
2022/10/26 03:31:52;;;;;;;;;1.00;1.00;;;;;;;;5044504;28;61742;-82
2022/10/26 03:34:18;;;;;;;;;2.50;1.50;;;;;;;;5044931;28;61779;-83
2022/10/26 03:36:43;;;;;;;;;3.75;1.75;;;;;;;;5026831;28;63685;-82
2022/10/26 03:39:08;;;;;;;;;1.75;1.75;;;;;;;;5044592;28;61980;-82
2022/10/26 03:41:33;;;;;;;;;2.33;1.00;;;;;;;;5044656;28;61935;-83
2022/10/26 03:43:59;;;;;;;;;2.25;2.25;;;;;;;;5045070;28;62022;-82
2022/10/26 03:46:24;;;;;;;;;1.25;1.25;;;;;;;;5043859;28;62098;-83
2022/10/26 03:48:49;;;;;;;;;1.00;1.00;;;;;;;;5044334;28;62099;-83
2022/10/26 03:51:14;;;;;;;;;2.25;2.00;;;;;;;;5044620;28;61848;-83
2022/10/26 03:53:40;;;;;;;;;2.75;2.00;;;;;;;;5044463;28;61798;-83
2022/10/26 03:56:05;;;;;;;;;1.50;0.75;;;;;;;;5025974;28;64893;-83
2022/10/26 03:58:30;;;;;;;;;2.25;0.75;;;;;;;;5026239;28;61744;-84
2022/10/26 04:00:56;;;;;;;;;3.00;1.00;;;;;;;;5026361;28;62022;-83
2022/10/26 04:03:21;;;;;;;;;1.00;1.00;;;;;;;;5026468;28;62159;-83
2022/10/26 04:05:46;;;;;;;;;2.50;1.00;;;;;;;;5027404;28;63631;-82
2022/10/26 04:08:11;;;;;;;;;1.50;1.00;;;;;;;;5064613;28;61742;-82
2022/10/26 04:10:37;;;;;;;;;3.00;1.75;;;;;;;;5064310;28;61718;-83
2022/10/26 04:13:02;;;;;;;;;2.50;0.50;;;;;;;;5064781;28;61804;-83
2022/10/26 04:15:27;;;;;;;;;1.75;1.75;;;;;;;;5063730;28;61810;-83
2022/10/26 04:17:56;;;;;;;;;1.50;1.50;;;;;;;;5045860;28;62035;-84
2022/10/26 04:20:22;;;;;;;;;1.00;1.00;;;;;;;;5064259;28;61727;-83
2022/10/26 04:22:47;;;;;;;;;3.75;1.00;;;;;;;;5046121;28;61894;-83
2022/10/26 04:25:12;;;;;;;;;2.00;2.00;;;;;;;;5045548;28;63662;-83
2022/10/26 04:27:38;;;;;;;;;1.75;1.75;;;;;;;;5045739;28;62042;-83
2022/10/26 04:30:04;;;;;;;;;2.00;1.00;;;;;;;;5045898;28;61885;-83
2022/10/26 04:32:29;;;;;;;;;1.50;1.50;;;;;;;;5064176;28;61930;-82
2022/10/26 04:34:55;;;;;;;;;3.67;1.00;;;;;;;;5045358;28;63516;-83
2022/10/26 04:37:20;;;;;;;;;1.00;1.00;;;;;;;;5063458;28;62015;-83
2022/10/26 04:39:45;;;;;;;;;1.00;1.00;;;;;;;;5063247;28;62061;-82
2022/10/26 04:42:10;;;;;;;;;8.67;1.33;;;;;;;;5064277;28;62170;-83
2022/10/26 04:44:36;;;;;;;;;1.75;1.75;;;;;;;;5063005;28;61695;-83
2022/10/26 04:47:01;;;;;;;;;2.00;1.00;;;;;;;;5045813;28;61855;-84
2022/10/26 04:49:26;;;;;;;;;4.50;2.00;;;;;;;;5063259;28;61706;-84
2022/10/26 04:51:51;;;;;;;;;2.00;1.00;;;;;;;;5063672;28;61728;-83
2022/10/26 04:54:17;;;;;;;;;3.75;1.00;;;;;;;;5035857;28;63865;-83
2022/10/26 04:56:42;;;;;;;;;1.00;1.00;;;;;;;;5022043;28;61718;-84
2022/10/26 04:59:07;;;;;;;;;1.50;1.25;;;;;;;;5023623;28;61701;-83
2022/10/26 05:01:32;;;;;;;;;1.00;1.00;;;;;;;;5023802;28;61993;-84
2022/10/26 05:03:58;;;;;;;;;5.00;2.00;;;;;;;;5022566;28;62818;-83
2022/10/26 05:06:23;;;;;;;;;3.00;1.00;;;;;;;;5023257;28;62035;-82
2022/10/26 05:08:48;;;;;;;;;2.75;1.25;;;;;;;;5023590;28;62082;-83
2022/10/26 05:11:13;;;;;;;;;3.00;1.00;;;;;;;;5023372;28;61736;-82
2022/10/26 05:13:39;;;;;;;;;1.00;1.00;;;;;;;;5022680;28;62651;-83
2022/10/26 05:16:04;;;;;;;;;1.00;1.00;;;;;;;;5022137;28;61789;-84
2022/10/26 05:18:29;;;;;;;;;3.00;1.50;;;;;;;;5022911;28;62337;-83
2022/10/26 05:20:55;;;;;;;;;2.75;1.50;;;;;;;;5022197;28;61773;-83
2022/10/26 05:23:20;;;;;;;;;2.00;2.00;;;;;;;;5022797;28;61930;-84
2022/10/26 05:25:46;;;;;;;;;1.25;1.25;;;;;;;;5022760;28;61885;-82
2022/10/26 05:28:12;;;;;;;;;1.00;1.00;;;;;;;;5023222;28;61858;-83
2022/10/26 05:30:37;;;;;;;;;2.00;0.00;;;;;;;;5023327;28;62060;-83
2022/10/26 05:33:03;;;;;;;;;1.00;1.00;;;;;;;;5022262;28;61893;-83
2022/10/26 05:35:28;;;;;;;;;3.75;1.00;;;;;;;;5023176;28;61951;-82
2022/10/26 05:37:53;;;;;;;;;1.67;1.00;;;;;;;;5021552;28;61858;-83
2022/10/26 05:40:19;;;;;;;;;2.00;0.75;;;;;;;;5022915;28;61873;-83
2022/10/26 05:42:44;;;;;;;;;1.00;1.00;;;;;;;;5020888;28;63752;-83
2022/10/26 05:45:10;;;;;;;;;1.75;1.00;;;;;;;;5022851;28;61949;-83
2022/10/26 05:47:40;;;;;;;;;0.50;0.50;;;;;;;;5022845;28;61815;-83
2022/10/26 05:50:05;;;;;;;;;2.00;1.00;;;;;;;;5020872;28;61831;-83
2022/10/26 05:52:36;;;;;;;;;2.50;1.00;;;;;;;;5020710;28;63360;-83
2022/10/26 05:55:02;;;;;;;;;1.50;1.25;;;;;;;;5045843;28;61691;-83
2022/10/26 05:57:27;;;;;;;;;2.50;1.00;;;;;;;;5062815;28;61779;-83
2022/10/26 05:59:52;;;;;;;;;3.00;1.00;;;;;;;;5044259;28;62092;-83
2022/10/26 06:02:25;;;;;;;;;1.75;1.75;;;;;;;;5043655;28;63619;-83
2022/10/26 06:04:52;;;;;;;;;1.00;1.00;;;;;;;;5062473;28;61825;-84
2022/10/26 06:07:19;;;;;;;;;2.50;1.50;;;;;;;;5029656;28;61889;-82
2022/10/26 06:09:45;;;;;;;;;3.75;2.50;;;;;;;;5024187;28;61768;-82
2022/10/26 06:12:11;;;;;;;;;4.00;1.00;;;;;;;;5042005;28;61995;-83
2022/10/26 06:14:37;;;;;;;;;1.00;0.25;;;;;;;;5042438;28;61719;-83
2022/10/26 06:17:20;;;;;;;;;1.00;1.00;;;;;;;;5024037;28;61967;-82
2022/10/26 06:19:54;;;;;;;;;1.50;0.00;;;;;;;;5041935;28;61736;-82
2022/10/26 06:22:26;;;;;;;;;1.00;1.00;;;;;;;;5023653;28;65090;-83
2022/10/26 06:25:01;;;;;;;;;1.00;1.00;;;;;;;;5042093;28;61809;-82
2022/10/26 06:27:56;;;;;;;;;2.25;1.00;;;;;;;;5024129;28;61832;-82
2022/10/26 06:30:22;;;;;;;;;1.00;1.00;;;;;;;;5007171;28;61754;-82
2022/10/26 06:32:48;;;;;;;;;1.00;1.00;;;;;;;;5041361;28;62318;-82
2022/10/26 06:35:13;;;;;;;;;1.00;1.00;;;;;;;;5042121;28;61620;-83
2022/10/26 06:37:40;;;;;;;;;2.00;1.75;;;;;;;;5023926;28;61764;-83
2022/10/26 06:40:06;;;;;;;;;3.00;1.25;;;;;;;;5023989;28;62142;-82
2022/10/26 06:42:31;;;;;;;;;1.00;1.00;;;;;;;;5041613;28;62947;-83
2022/10/26 06:44:56;;;;;;;;;1.75;0.75;;;;;;;;5042076;28;62341;-83
2022/10/26 06:47:30;;;;;;;;;1.75;1.00;;;;;;;;5023958;28;61957;-82
2022/10/26 06:50:13;;;;;;;;;3.75;1.50;;;;;;;;5041991;28;61846;-83
2022/10/26 06:52:47;;;;;;;;;2.00;1.00;;;;;;;;5041364;28;61842;-83
2022/10/26 06:55:14;;;;;;;;;1.00;1.00;;;;;;;;5041441;28;61709;-83
2022/10/26 06:57:40;;;;;;;;;1.25;1.00;;;;;;;;5023857;28;61784;-83
2022/10/26 07:00:07;;;;;;;;;0.00;0.00;;;;;;;;5042095;28;61871;-83
2022/10/26 07:02:32;;;;;;;;;2.00;1.00;;;;;;;;5025888;28;64418;-83
2022/10/26 07:04:57;;;;;;;;;3.00;1.00;;;;;;;;5027310;28;61788;-83
2022/10/26 07:07:24;;;;;;;;;1.75;0.50;;;;;;;;5047963;28;61775;-82
2022/10/26 07:09:50;;;;;;;;;2.00;2.00;;;;;;;;5065783;28;61734;-83
2022/10/26 07:12:15;;;;;;;;;1.00;1.00;;;;;;;;5064639;28;61773;-82
2022/10/26 07:14:41;;;;;;;;;4.00;1.00;;;;;;;;5065552;28;61761;-83
2022/10/26 07:17:07;;;;;;;;;1.75;1.00;;;;;;;;5046925;28;61864;-83
2022/10/26 07:19:32;;;;;;;;;8.50;1.00;;;;;;;;5065608;28;61790;-83
2022/10/26 07:22:00;;;;;;;;;1.75;1.75;;;;;;;;5064579;28;62641;-83
2022/10/26 07:24:29;;;;;;;;;1.50;1.00;;;;;;;;5065417;28;61838;-83
2022/10/26 07:26:55;;;;;;;;;3.00;1.00;;;;;;;;5065149;28;61924;-83
2022/10/26 07:29:21;;;;;;;;;0.25;0.25;;;;;;;;5047109;28;61866;-83
2022/10/26 07:31:46;;;;;;;;;2.50;1.00;;;;;;;;5046392;28;63715;-84
2022/10/26 07:34:11;;;;;;;;;2.00;2.00;;;;;;;;5064704;28;61929;-83
2022/10/26 07:36:37;;;;;;;;;1.25;1.00;;;;;;;;5065061;28;61702;-83
2022/10/26 07:39:02;;;;;;;;;0.00;0.00;;;;;;;;5065095;28;61718;-84
2022/10/26 07:41:28;;;;;;;;;1.00;1.00;;;;;;;;5046385;28;63950;-84
2022/10/26 07:43:53;;;;;;;;;0.33;0.33;;;;;;;;5065047;28;62313;-84
2022/10/26 07:46:19;;;;;;;;;1.75;1.75;;;;;;;;5065042;28;61812;-83
2022/10/26 07:48:44;;;;;;;;;3.00;1.00;;;;;;;;5065061;28;61831;-83
2022/10/26 07:51:09;;;;;;;;;1.00;1.00;;;;;;;;5064002;28;61919;-83
2022/10/26 07:53:34;;;;;;;;;0.50;0.50;;;;;;;;5065148;28;61822;-83
2022/10/26 07:56:00;;;;;;;;;2.00;2.00;;;;;;;;5064658;28;61727;-84
2022/10/26 07:58:26;;;;;;;;;3.25;2.50;;;;;;;;5064979;28;61718;-83
2022/10/26 08:00:51;;;;;;;;;2.25;1.00;;;;;;;;5064565;28;62504;-84
2022/10/26 08:03:17;;;;;;;;;1.75;1.75;;;;;;;;5064295;28;61869;-83
2022/10/26 08:05:44;;;;;;;;;1.00;1.00;;;;;;;;5064560;28;61862;-82
2022/10/26 08:08:09;;;;;;;;;1.00;1.00;;;;;;;;5064872;28;61924;-83
2022/10/26 08:10:34;;;;;;;;;2.75;1.00;;;;;;;;5064121;28;62816;-83
2022/10/26 08:13:00;;;;;;;;;1.25;1.00;;;;;;;;5046180;28;62105;-82
2022/10/26 08:15:25;;;;;;;;;0.50;0.50;;;;;;;;5046469;28;62009;-84
2022/10/26 08:17:50;;;;;;;;;2.50;2.00;;;;;;;;5064509;28;61930;-83
2022/10/26 08:20:15;;;;;;;;;1.00;1.00;;;;;;;;5045298;28;63972;-83
2022/10/26 08:22:41;;;;;;;;;4.75;1.00;;;;;;;;5064604;28;61719;-83
2022/10/26 08:25:06;;;;;;;;;3.00;1.00;;;;;;;;5064426;28;61757;-84
2022/10/26 08:27:31;;;;;;;;;2.00;0.67;;;;;;;;5046385;28;61874;-83
2022/10/26 08:29:57;;;;;;;;;1.67;1.67;;;;;;;;5063746;28;61733;-83
2022/10/26 08:32:22;;;;;;;;;2.25;1.50;;;;;;;;5064013;28;61848;-83
2022/10/26 08:34:47;;;;;;;;;3.67;1.33;;;;;;;;5064119;28;61683;-83
2022/10/26 08:37:12;;;;;;;;;2.75;1.25;;;;;;;;5064158;28;62108;-83
2022/10/26 08:39:38;;;;;;;;;2.33;2.00;;;;;;;;5063767;28;61812;-83
2022/10/26 08:42:08;;;;;;;;;2.25;2.25;;;;;;;;5064159;28;61822;-83
2022/10/26 08:44:40;;;;;;;;;2.50;2.00;;;;;;;;5064224;28;61849;-83
2022/10/26 08:47:13;;;;;;;;;0.50;0.50;;;;;;;;5064360;28;61679;-84
2022/10/26 08:49:43;;;;;;;;;2.33;1.00;;;;;;;;5062932;28;62168;-83
2022/10/26 08:52:11;;;;;;;;;2.00;0.67;;;;;;;;5064012;28;61840;-83
2022/10/26 08:54:38;;;;;;;;;2.00;1.00;;;;;;;;5063706;28;62026;-83
2022/10/26 08:57:11;;;;;;;;;1.00;0.00;;;;;;;;5045922;28;62043;-83
2022/10/26 08:59:42;;;;;;;;;0.67;0.67;;;;;;;;5063285;28;61925;-83
2022/10/26 09:02:15;;;;;;;;;0.33;0.00;;;;;;;;5063964;28;61809;-83
2022/10/26 09:04:40;;;;;;;;;1.33;1.00;;;;;;;;5063496;28;61687;-83
2022/10/26 09:07:44;;;;;;;;;1.67;0.67;;;;;;;;5063740;28;61737;-83
2022/10/26 09:10:45;;;;;;;;;5.67;0.00;;;;;;;;5000771;28;62027;-84
2022/10/26 09:13:16;;;;;;;;;3.00;1.00;;;;;;;;4942490;28;62259;-83
2022/10/26 09:15:47;;;;;;;;;0.00;0.00;;;;;;;;4942870;28;61901;-83
2022/10/26 09:18:31;;;;;;;;;1.00;1.00;;;;;;;;4926369;28;61950;-83
2022/10/26 09:21:14;;;;;;;;;0.67;0.00;;;;;;;;4941914;28;63560;-83
2022/10/26 09:23:48;;;;;;;;;0.67;0.67;;;;;;;;4941829;28;61835;-83
2022/10/26 09:26:17;;;;;;;;;3.67;0.00;;;;;;;;4942647;28;61826;-83
2022/10/26 09:28:45;;;;;;;;;1.33;0.33;;;;;;;;4942757;28;61774;-84
2022/10/26 09:31:14;;;;;;;;;1.00;1.00;;;;;;;;4942085;28;62039;-84
2022/10/26 09:33:39;;;;;;;;;1.67;0.00;;;;;;;;4942011;28;62009;-83
2022/10/26 09:36:11;;;;;;;;;1.67;0.67;;;;;;;;4942682;28;61969;-83
2022/10/26 09:38:49;;;;;;;;;0.00;0.00;;;;;;;;4942497;28;61865;-83
2022/10/26 09:41:37;;;;;;;;;1.00;1.00;;;;;;;;4961660;28;63920;-84
2022/10/26 09:44:24;;;;;;;;;3.67;0.33;;;;;;;;4995488;28;61984;-84
2022/10/26 09:47:02;;;;;;;;;0.00;0.00;;;;;;;;5022688;28;62087;-84
2022/10/26 09:49:50;;;;;;;;;0.67;0.67;;;;;;;;5062279;28;61903;-84
2022/10/26 09:52:16;;;;;;;;;2.67;1.00;;;;;;;;5053909;28;61841;-84
2022/10/26 10:26:13;;;;;;;;;0.00;0.00;;;;;;;;5002914;28;61912;-82
2022/10/26 10:28:41;;;;;;;;;0.00;0.00;;;;;;;;5001529;28;62744;-83
2022/10/26 10:31:20;;;;;;;;;1.33;0.00;;;;;;;;5001172;28;62021;-84
2022/10/26 10:33:48;;;;;;;;;2.00;0.00;;;;;;;;5001097;28;61747;-83
2022/10/26 10:36:18;;;;;;;;;0.00;0.00;;;;;;;;5002593;28;61984;-84
2022/10/26 10:38:45;;;;;;;;;2.00;0.00;;;;;;;;5001726;28;61919;-83
2022/10/26 10:41:15;;;;;;;;;0.00;0.00;;;;;;;;5001080;28;62079;-84
2022/10/26 10:43:46;;;;;;;;;2.00;1.00;;;;;;;;5001003;28;61785;-84
2022/10/26 10:46:16;;;;;;;;;4.00;2.00;;;;;;;;5002644;28;61879;-84
2022/10/26 10:48:45;;;;;;;;;0.00;0.00;;;;;;;;5000011;28;62917;-83
2022/10/26 10:51:13;;;;;;;;;0.00;0.00;;;;;;;;5000877;28;61910;-84
2022/10/26 10:53:44;;;;;;;;;3.00;1.00;;;;;;;;5002313;28;61884;-83
2022/10/26 10:56:25;;;;;;;;;0.00;0.00;;;;;;;;5035466;28;61898;-83
2022/10/26 10:59:12;;;;;;;;;1.33;1.00;;;;;;;;5041335;28;61908;-84
2022/10/26 11:01:39;;;;;;;;;1.00;0.00;;;;;;;;5041635;28;61929;-84
2022/10/26 11:04:24;;;;;;;;;0.00;0.00;;;;;;;;5023919;28;61949;-84
2022/10/26 11:06:50;;;;;;;;;0.00;0.00;;;;;;;;5041877;28;61735;-83
2022/10/26 11:09:18;;;;;;;;;0.00;0.00;;;;;;;;5041226;28;61767;-83
2022/10/26 11:11:46;;;;;;;;;1.67;0.00;;;;;;;;5041444;28;61715;-83
2022/10/26 11:14:15;;;;;;;;;2.33;1.00;;;;;;;;5041825;28;61942;-84
2022/10/26 11:16:46;;;;;;;;;0.00;0.00;;;;;;;;5041896;28;61774;-84
2022/10/26 11:19:26;;;;;;;;;0.00;0.00;;;;;;;;5022807;28;64995;-84
2022/10/26 11:21:53;;;;;;;;;1.00;1.00;;;;;;;;5041317;28;61806;-84
2022/10/26 11:24:24;;;;;;;;;0.00;0.00;;;;;;;;5041926;28;61743;-84
2022/10/26 11:26:55;;;;;;;;;1.00;1.00;;;;;;;;5023927;28;61848;-84
2022/10/26 11:29:46;;;;;;;;;0.00;0.00;;;;;;;;5040843;28;61940;-83
2022/10/26 11:32:11;;;;;;;;;0.00;0.00;;;;;;;;5041582;28;61790;-84
2022/10/26 11:34:40;;;;;;;;;1.00;0.00;;;;;;;;5023389;28;62026;-83
2022/10/26 11:37:11;;;;;;;;;0.00;0.00;;;;;;;;5041858;28;62044;-84
2022/10/26 11:39:52;;;;;;;;;1.00;0.00;;;;;;;;5041077;28;62765;-84
2022/10/26 11:42:26;;;;;;;;;0.33;0.00;;;;;;;;5041547;28;61857;-83
2022/10/26 11:45:00;;;;;;;;;0.67;0.67;;;;;;;;5041202;28;61759;-82
2022/10/26 11:47:37;;;;;;;;;0.00;0.00;;;;;;;;5042911;28;62394;-83
2022/10/26 11:50:22;;;;;;;;;0.33;0.00;;;;;;;;5026171;28;63837;-84
2022/10/26 11:52:47;;;;;;;;;1.00;0.00;;;;;;;;5044862;28;62013;-83
2022/10/26 11:55:12;;;;;;;;;0.00;0.00;;;;;;;;5044868;28;62046;-84
2022/10/26 11:57:39;;;;;;;;;0.00;0.00;;;;;;;;5026959;28;61819;-83
2022/10/26 12:00:06;;;;;;;;;0.00;0.00;;;;;;;;5026253;28;63873;-81
2022/10/26 12:02:35;;;;;;;;;1.00;0.00;;;;;;;;5044758;28;61782;-83
2022/10/26 12:05:21;;;;;;;;;0.00;0.00;;;;;;;;5044400;28;62092;-83
2022/10/26 12:07:48;;;;;;;;;1.33;0.00;;;;;;;;5026423;28;61862;-83
2022/10/26 12:10:34;;;;;;;;;0.00;0.00;;;;;;;;5044268;28;62678;-84
2022/10/26 12:13:08;;;;;;;;;0.00;0.00;;;;;;;;5043467;28;61766;-83
2022/10/26 12:15:47;;;;;;;;;0.00;0.00;;;;;;;;5026730;28;61925;-84
2022/10/26 12:18:16;;;;;;;;;0.00;0.00;;;;;;;;5044442;28;61930;-83
2022/10/26 12:20:52;;;;;;;;;0.00;0.00;;;;;;;;5025924;28;64096;-84
2022/10/26 12:23:18;;;;;;;;;0.00;0.00;;;;;;;;5044548;28;61735;-83
2022/10/26 12:25:43;;;;;;;;;0.00;0.00;;;;;;;;5044438;28;61975;-83
2022/10/26 12:28:27;;;;;;;;;1.00;1.00;;;;;;;;5026258;28;62230;-83
2022/10/26 12:31:12;;;;;;;;;1.67;1.00;;;;;;;;5025701;28;63749;-83
2022/10/26 12:33:48;;;;;;;;;0.00;0.00;;;;;;;;5025889;28;62027;-85
2022/10/26 12:36:33;;;;;;;;;1.00;0.00;;;;;;;;5044456;28;62094;-83
2022/10/26 12:38:59;;;;;;;;;0.00;0.00;;;;;;;;5044309;28;61846;-84
2022/10/26 12:41:25;;;;;;;;;1.33;0.00;;;;;;;;5043411;28;62459;-83
2022/10/26 12:43:54;;;;;;;;;0.00;0.00;;;;;;;;5044077;28;61947;-83
2022/10/26 12:46:26;;;;;;;;;0.67;0.67;;;;;;;;5044378;28;61671;-83
2022/10/26 12:48:55;;;;;;;;;0.00;0.00;;;;;;;;5043930;28;62312;-83
2022/10/26 12:51:20;;;;;;;;;0.00;0.00;;;;;;;;5043457;28;62669;-84
2022/10/26 12:54:04;;;;;;;;;0.00;0.00;;;;;;;;5025970;28;61823;-83
2022/10/26 12:56:35;;;;;;;;;0.67;0.00;;;;;;;;5043633;28;61664;-83
2022/10/26 12:59:15;;;;;;;;;0.33;0.33;;;;;;;;5024987;28;61851;-83
2022/10/26 13:01:58;;;;;;;;;0.33;0.00;;;;;;;;5025206;28;63893;-83
2022/10/26 13:04:26;;;;;;;;;0.00;0.00;;;;;;;;5043672;28;61671;-82
2022/10/26 13:07:05;;;;;;;;;0.33;0.00;;;;;;;;5043745;28;61775;-83
2022/10/26 13:09:31;;;;;;;;;0.00;0.00;;;;;;;;5025988;28;61839;-83
2022/10/26 13:12:00;;;;;;;;;0.00;0.00;;;;;;;;5024828;28;63593;-83
2022/10/26 13:14:31;;;;;;;;;0.00;0.00;;;;;;;;5043765;28;61770;-83
2022/10/26 13:16:57;;;;;;;;;0.00;0.00;;;;;;;;5043658;28;61885;-83
2022/10/26 13:19:29;;;;;;;;;2.00;0.33;;;;;;;;5043260;28;62076;-83
2022/10/26 13:21:56;;;;;;;;;0.00;0.00;;;;;;;;5042823;28;62840;-83
2022/10/26 13:24:24;;;;;;;;;0.00;0.00;;;;;;;;5025277;28;61904;-82
2022/10/26 13:27:04;;;;;;;;;0.00;0.00;;;;;;;;5043712;28;61803;-83
2022/10/26 13:29:30;;;;;;;;;0.00;0.00;;;;;;;;5043710;28;61779;-83
2022/10/26 13:31:56;;;;;;;;;1.00;0.00;;;;;;;;5024903;28;62501;-83
2022/10/26 13:34:23;;;;;;;;;1.33;0.33;;;;;;;;5043362;28;61751;-83
2022/10/26 13:37:07;;;;;;;;;0.00;0.00;;;;;;;;5025641;28;61800;-82
2022/10/26 13:39:37;;;;;;;;;0.00;0.00;;;;;;;;5043475;28;61757;-83
2022/10/26 13:42:04;;;;;;;;;0.00;0.00;;;;;;;;5042720;28;61874;-83
2022/10/26 13:44:37;;;;;;;;;1.00;1.00;;;;;;;;5025544;28;62027;-83
2022/10/26 13:47:05;;;;;;;;;0.33;0.00;;;;;;;;5043229;28;61786;-82
2022/10/26 13:49:39;;;;;;;;;2.67;0.00;;;;;;;;5043162;28;61901;-83
2022/10/26 13:52:05;;;;;;;;;1.00;1.00;;;;;;;;5024738;28;64457;-83
2022/10/26 13:54:41;;;;;;;;;0.33;0.33;;;;;;;;5042815;28;61746;-83
2022/10/26 13:57:06;;;;;;;;;0.00;0.00;;;;;;;;5025036;28;61855;-83
2022/10/26 13:59:34;;;;;;;;;0.33;0.00;;;;;;;;5043369;28;61795;-83
2022/10/26 14:02:06;;;;;;;;;0.00;0.00;;;;;;;;5024599;28;63625;-83
2022/10/26 14:04:31;;;;;;;;;0.00;0.00;;;;;;;;5043096;28;62009;-84
2022/10/26 14:06:56;;;;;;;;;0.00;0.00;;;;;;;;5042933;28;61842;-83
2022/10/26 14:09:22;;;;;;;;;1.33;0.00;;;;;;;;5024938;28;61858;-83
2022/10/26 14:11:49;;;;;;;;;0.00;0.00;;;;;;;;5024062;28;64068;-83
2022/10/26 14:14:33;;;;;;;;;0.67;0.00;;;;;;;;5024963;28;61689;-83
2022/10/26 14:16:59;;;;;;;;;0.00;0.00;;;;;;;;5025082;28;61866;-83
2022/10/26 14:19:27;;;;;;;;;0.67;0.67;;;;;;;;5042437;28;61695;-83
2022/10/26 14:21:53;;;;;;;;;1.00;0.00;;;;;;;;5042224;28;62810;-83
2022/10/26 14:24:21;;;;;;;;;0.00;0.00;;;;;;;;5042518;28;62067;-83
2022/10/26 14:26:46;;;;;;;;;0.67;0.00;;;;;;;;5043154;28;61946;-83
2022/10/26 14:29:16;;;;;;;;;0.00;0.00;;;;;;;;5024830;28;61932;-83
2022/10/26 14:31:42;;;;;;;;;0.67;0.00;;;;;;;;5023936;28;64974;-83
2022/10/26 14:34:08;;;;;;;;;0.00;0.00;;;;;;;;5042700;28;61807;-83
2022/10/26 14:36:38;;;;;;;;;0.67;0.00;;;;;;;;5024604;28;61888;-82
2022/10/26 14:39:06;;;;;;;;;0.00;0.00;;;;;;;;5042364;28;62029;-83
2022/10/26 14:41:33;;;;;;;;;0.00;0.00;;;;;;;;5041863;28;61816;-83
2022/10/26 14:43:59;;;;;;;;;0.00;0.00;;;;;;;;5042347;28;61797;-83
2022/10/26 14:46:26;;;;;;;;;0.00;0.00;;;;;;;;5024503;28;61760;-83
2022/10/26 14:48:58;;;;;;;;;0.33;0.33;;;;;;;;5024606;28;61772;-83
2022/10/26 14:51:27;;;;;;;;;0.00;0.00;;;;;;;;5023652;28;65098;-81
2022/10/26 14:53:56;;;;;;;;;0.00;0.00;;;;;;;;5042399;28;61785;-83
2022/10/26 14:56:27;;;;;;;;;0.33;0.33;;;;;;;;5042231;28;61803;-83
2022/10/26 14:58:53;;;;;;;;;0.00;0.00;;;;;;;;5042556;28;61878;-83
2022/10/26 15:01:21;;;;;;;;;1.67;0.00;;;;;;;;5041618;28;61791;-83
2022/10/26 15:03:57;;;;;;;;;0.00;0.00;;;;;;;;5024237;28;61965;-83
2022/10/26 15:06:29;;;;;;;;;0.67;0.67;;;;;;;;5048491;28;61652;-82
2022/10/26 15:08:55;;;;;;;;;1.67;0.00;;;;;;;;5062627;28;61692;-83
2022/10/26 15:11:20;;;;;;;;;0.00;0.00;;;;;;;;5061526;28;61843;-83
2022/10/26 15:13:46;;;;;;;;;0.00;0.00;;;;;;;;5043804;28;61773;-83
2022/10/26 15:16:16;;;;;;;;;0.67;0.67;;;;;;;;5044439;28;61864;-83
2022/10/26 15:18:41;;;;;;;;;0.00;0.00;;;;;;;;5043937;28;62028;-83
2022/10/26 15:21:20;;;;;;;;;0.00;0.00;;;;;;;;5043181;28;63565;-82
2022/10/26 15:23:45;;;;;;;;;0.00;0.00;;;;;;;;5065442;28;61710;-83
2022/10/26 15:26:11;;;;;;;;;2.00;0.00;;;;;;;;5065903;28;61651;-82